Terminal Aerodrome Forecast
Issued by NWS Shreveport, LA

Home | Current Version | Previous Version | Text Only | Print | Product List | Glossary On
Versions: 1 2 3 4 5 6 7 8 9 10 11 12 13 14 15 16 17 18
000
FTUS44 KSHV 211300 AAA
TAFTYR
TAF AMD
KTYR 211324Z 2113/2212 00000KT 6SM BR FEW025 OVC035
      TEMPO 2113/2115 BKN007
     FM211600 14006KT P6SM SCT008 BKN015
     FM212000 15008KT P6SM BKN030
     FM220000 17007KT P6SM SCT035 SCT250
     FM220500 17013KT 4SM BR OVC025
     FM220800 18013KT 4SM BR OVC015=

USA.gov is the U.S. government's official web portal to all federal, state and local government web resources and services.